sensor_id;sensor_type;location;lat;lon;timestamp;pressure;altitude;pressure_sealevel;temperature;humidity
75745;BME280;64359;51.366;-0.222;2023-06-22T00:00:40;101560.61;;;24.95;52.38
75745;BME280;64359;51.366;-0.222;2023-06-22T00:01:45;101561.02;;;24.95;52.50
75745;BME280;64359;51.366;-0.222;2023-06-22T00:02:49;101564.42;;;24.95;52.50
75745;BME280;64359;51.366;-0.222;2023-06-22T00:03:54;101564.60;;;24.95;52.45
75745;BME280;64359;51.366;-0.222;2023-06-22T00:04:58;101566.44;;;24.95;52.37
75745;BME280;64359;51.366;-0.222;2023-06-22T00:06:02;101563.23;;;24.94;52.41
75745;BME280;64359;51.366;-0.222;2023-06-22T00:07:07;101559.98;;;24.94;52.57
75745;BME280;64359;51.366;-0.222;2023-06-22T00:08:11;101558.17;;;24.94;52.42
75745;BME280;64359;51.366;-0.222;2023-06-22T00:09:16;101558.13;;;24.95;52.58
75745;BME280;64359;51.366;-0.222;2023-06-22T00:10:20;101556.07;;;24.94;52.49
75745;BME280;64359;51.366;-0.222;2023-06-22T00:11:24;101553.48;;;24.94;52.50
75745;BME280;64359;51.366;-0.222;2023-06-22T00:12:29;101554.65;;;24.94;52.45
75745;BME280;64359;51.366;-0.222;2023-06-22T00:13:33;101552.63;;;24.94;52.49
75745;BME280;64359;51.366;-0.222;2023-06-22T00:14:37;101554.86;;;24.93;52.41
75745;BME280;64359;51.366;-0.222;2023-06-22T00:15:42;101556.66;;;24.93;52.45
75745;BME280;64359;51.366;-0.222;2023-06-22T00:16:46;101554.69;;;24.93;52.47
75745;BME280;64359;51.366;-0.222;2023-06-22T00:17:52;101552.92;;;24.93;52.40
75745;BME280;64359;51.366;-0.222;2023-06-22T00:18:56;101550.23;;;24.92;52.54
75745;BME280;64359;51.366;-0.222;2023-06-22T00:20:03;101555.92;;;24.92;52.35
75745;BME280;64359;51.366;-0.222;2023-06-22T00:21:11;101554.92;;;24.91;52.40
75745;BME280;64359;51.366;-0.222;2023-06-22T00:22:15;101555.30;;;24.91;52.36
75745;BME280;64359;51.366;-0.222;2023-06-22T00:23:20;101555.17;;;24.91;52.42
75745;BME280;64359;51.366;-0.222;2023-06-22T00:24:25;101558.35;;;24.92;52.49
75745;BME280;64359;51.366;-0.222;2023-06-22T00:25:29;101559.10;;;24.90;52.43
75745;BME280;64359;51.366;-0.222;2023-06-22T00:26:34;101560.28;;;24.91;52.42
75745;BME280;64359;51.366;-0.222;2023-06-22T00:27:38;101562.46;;;24.91;52.46
75745;BME280;64359;51.366;-0.222;2023-06-22T00:28:42;101561.24;;;24.90;52.49
75745;BME280;64359;51.366;-0.222;2023-06-22T00:29:46;101563.80;;;24.90;52.38
75745;BME280;64359;51.366;-0.222;2023-06-22T00:30:51;101564.93;;;24.90;52.53
75745;BME280;64359;51.366;-0.222;2023-06-22T00:31:55;101562.33;;;24.89;52.43
75745;BME280;64359;51.366;-0.222;2023-06-22T00:33:00;101570.42;;;24.90;52.49
75745;BME280;64359;51.366;-0.222;2023-06-22T00:34:04;101568.69;;;24.89;52.44
75745;BME280;64359;51.366;-0.222;2023-06-22T00:35:10;101570.20;;;24.89;52.42
75745;BME280;64359;51.366;-0.222;2023-06-22T00:36:15;101571.34;;;24.88;52.33
75745;BME280;64359;51.366;-0.222;2023-06-22T00:37:22;101571.16;;;24.88;52.35
75745;BME280;64359;51.366;-0.222;2023-06-22T00:38:28;101572.13;;;24.88;52.43
75745;BME280;64359;51.366;-0.222;2023-06-22T00:39:33;101573.42;;;24.88;52.39
75745;BME280;64359;51.366;-0.222;2023-06-22T00:40:37;101572.23;;;24.87;52.45
75745;BME280;64359;51.366;-0.222;2023-06-22T00:41:41;101571.91;;;24.87;52.39
75745;BME280;64359;51.366;-0.222;2023-06-22T00:42:45;101572.36;;;24.86;52.49
75745;BME280;64359;51.366;-0.222;2023-06-22T00:43:50;101570.42;;;24.85;52.38
75745;BME280;64359;51.366;-0.222;2023-06-22T00:44:54;101568.95;;;24.86;52.46
75745;BME280;64359;51.366;-0.222;2023-06-22T00:45:58;101564.69;;;24.85;52.34
75745;BME280;64359;51.366;-0.222;2023-06-22T00:47:03;101565.37;;;24.84;52.35
75745;BME280;64359;51.366;-0.222;2023-06-22T00:48:09;101568.63;;;24.84;52.39
75745;BME280;64359;51.366;-0.222;2023-06-22T00:49:15;101570.58;;;24.84;52.50
75745;BME280;64359;51.366;-0.222;2023-06-22T00:50:21;101568.83;;;24.84;52.48
75745;BME280;64359;51.366;-0.222;2023-06-22T00:51:26;101566.09;;;24.82;52.38
75745;BME280;64359;51.366;-0.222;2023-06-22T00:52:31;101567.89;;;24.82;52.44
75745;BME280;64359;51.366;-0.222;2023-06-22T00:53:36;101567.23;;;24.82;52.40
75745;BME280;64359;51.366;-0.222;2023-06-22T00:54:41;101567.60;;;24.82;52.40
75745;BME280;64359;51.366;-0.222;2023-06-22T00:55:48;101566.58;;;24.81;52.37
75745;BME280;64359;51.366;-0.222;2023-06-22T00:56:54;101565.54;;;24.81;52.38
75745;BME280;64359;51.366;-0.222;2023-06-22T00:58:00;101567.96;;;24.80;52.29
75745;BME280;64359;51.366;-0.222;2023-06-22T00:59:04;101567.59;;;24.80;52.43
75745;BME280;64359;51.366;-0.222;2023-06-22T01:00:11;101565.10;;;24.80;52.28
75745;BME280;64359;51.366;-0.222;2023-06-22T01:01:21;101563.25;;;24.79;52.25
75745;BME280;64359;51.366;-0.222;2023-06-22T01:02:26;101565.48;;;24.78;52.35
75745;BME280;64359;51.366;-0.222;2023-06-22T01:03:31;101563.88;;;24.78;52.34
75745;BME280;64359;51.366;-0.222;2023-06-22T01:04:38;101563.71;;;24.78;52.34
75745;BME280;64359;51.366;-0.222;2023-06-22T01:05:42;101563.71;;;24.78;52.31
75745;BME280;64359;51.366;-0.222;2023-06-22T01:07:00;101564.13;;;24.77;52.43
75745;BME280;64359;51.366;-0.222;2023-06-22T01:08:15;101562.66;;;24.76;52.40
75745;BME280;64359;51.366;-0.222;2023-06-22T01:09:25;101562.19;;;24.76;52.39
75745;BME280;64359;51.366;-0.222;2023-06-22T01:10:36;101558.78;;;24.75;52.36
75745;BME280;64359;51.366;-0.222;2023-06-22T01:11:47;101559.75;;;24.75;52.30
75745;BME280;64359;51.366;-0.222;2023-06-22T01:13:11;101557.69;;;24.74;52.50
75745;BME280;64359;51.366;-0.222;2023-06-22T01:14:23;101563.67;;;24.73;52.39
75745;BME280;64359;51.366;-0.222;2023-06-22T01:15:33;101561.86;;;24.73;52.42
75745;BME280;64359;51.366;-0.222;2023-06-22T01:16:41;101558.05;;;24.72;52.35
75745;BME280;64359;51.366;-0.222;2023-06-22T01:17:49;101558.80;;;24.73;52.43
75745;BME280;64359;51.366;-0.222;2023-06-22T01:18:57;101557.03;;;24.72;52.32
75745;BME280;64359;51.366;-0.222;2023-06-22T01:20:04;101557.80;;;24.72;52.47
75745;BME280;64359;51.366;-0.222;2023-06-22T01:21:11;101555.48;;;24.71;52.40
75745;BME280;64359;51.366;-0.222;2023-06-22T01:22:18;101554.60;;;24.71;52.33
75745;BME280;64359;51.366;-0.222;2023-06-22T01:23:29;101557.53;;;24.71;52.37
75745;BME280;64359;51.366;-0.222;2023-06-22T01:24:48;101552.70;;;24.70;52.30
75745;BME280;64359;51.366;-0.222;2023-06-22T01:26:02;101557.65;;;24.70;52.36
75745;BME280;64359;51.366;-0.222;2023-06-22T01:27:20;101553.41;;;24.69;52.50
75745;BME280;64359;51.366;-0.222;2023-06-22T01:28:41;101556.76;;;24.68;52.38
75745;BME280;64359;51.366;-0.222;2023-06-22T01:29:46;101558.52;;;24.68;52.37
75745;BME280;64359;51.366;-0.222;2023-06-22T01:30:52;101558.21;;;24.67;52.43
75745;BME280;64359;51.366;-0.222;2023-06-22T01:32:08;101562.95;;;24.67;52.23
75745;BME280;64359;51.366;-0.222;2023-06-22T01:33:14;101559.35;;;24.67;52.22
75745;BME280;64359;51.366;-0.222;2023-06-22T01:34:20;101560.64;;;24.67;52.28
75745;BME280;64359;51.366;-0.222;2023-06-22T01:35:26;101560.30;;;24.67;52.38
75745;BME280;64359;51.366;-0.222;2023-06-22T01:36:31;101555.48;;;24.66;52.34
75745;BME280;64359;51.366;-0.222;2023-06-22T01:37:38;101559.05;;;24.66;52.41
75745;BME280;64359;51.366;-0.222;2023-06-22T01:38:43;101558.92;;;24.66;52.36
75745;BME280;64359;51.366;-0.222;2023-06-22T01:39:48;101560.17;;;24.66;52.26
75745;BME280;64359;51.366;-0.222;2023-06-22T01:40:53;101559.63;;;24.66;52.30
75745;BME280;64359;51.366;-0.222;2023-06-22T01:41:58;101560.67;;;24.66;52.33
75745;BME280;64359;51.366;-0.222;2023-06-22T01:43:03;101559.13;;;24.66;52.07
75745;BME280;64359;51.366;-0.222;2023-06-22T01:44:08;101560.41;;;24.66;52.14
75745;BME280;64359;51.366;-0.222;2023-06-22T01:45:13;101561.59;;;24.65;52.13
75745;BME280;64359;51.366;-0.222;2023-06-22T01:46:19;101562.34;;;24.65;52.17
75745;BME280;64359;51.366;-0.222;2023-06-22T01:47:24;101560.54;;;24.65;52.12
75745;BME280;64359;51.366;-0.222;2023-06-22T01:48:30;101564.52;;;24.65;52.18
75745;BME280;64359;51.366;-0.222;2023-06-22T01:49:35;101563.27;;;24.65;52.12
75745;BME280;64359;51.366;-0.222;2023-06-22T01:50:40;101562.42;;;24.64;52.16
75745;BME280;64359;51.366;-0.222;2023-06-22T01:51:45;101560.45;;;24.64;52.25
75745;BME280;64359;51.366;-0.222;2023-06-22T01:52:49;101556.63;;;24.64;52.16
75745;BME280;64359;51.366;-0.222;2023-06-22T01:53:53;101554.29;;;24.64;52.24
75745;BME280;64359;51.366;-0.222;2023-06-22T01:54:58;101553.40;;;24.64;52.15
75745;BME280;64359;51.366;-0.222;2023-06-22T01:56:02;101550.59;;;24.63;52.22
75745;BME280;64359;51.366;-0.222;2023-06-22T01:57:07;101553.81;;;24.63;52.11
75745;BME280;64359;51.366;-0.222;2023-06-22T01:58:12;101554.61;;;24.63;52.07
75745;BME280;64359;51.366;-0.222;2023-06-22T01:59:21;101553.86;;;24.63;52.10
75745;BME280;64359;51.366;-0.222;2023-06-22T02:00:31;101552.59;;;24.63;52.12
75745;BME280;64359;51.366;-0.222;2023-06-22T02:01:42;101553.13;;;24.62;52.15
75745;BME280;64359;51.366;-0.222;2023-06-22T02:02:55;101555.34;;;24.61;52.04
75745;BME280;64359;51.366;-0.222;2023-06-22T02:04:04;101555.38;;;24.61;52.15
75745;BME280;64359;51.366;-0.222;2023-06-22T02:05:11;101550.55;;;24.60;52.08
75745;BME280;64359;51.366;-0.222;2023-06-22T02:06:20;101550.97;;;24.60;52.01
75745;BME280;64359;51.366;-0.222;2023-06-22T02:07:29;101549.18;;;24.60;52.10
75745;BME280;64359;51.366;-0.222;2023-06-22T02:08:40;101551.96;;;24.59;52.06
75745;BME280;64359;51.366;-0.222;2023-06-22T02:09:46;101554.38;;;24.59;52.21
75745;BME280;64359;51.366;-0.222;2023-06-22T02:10:53;101554.38;;;24.59;52.17
75745;BME280;64359;51.366;-0.222;2023-06-22T02:11:59;101556.38;;;24.59;52.12
75745;BME280;64359;51.366;-0.222;2023-06-22T02:13:06;101556.92;;;24.58;52.13
75745;BME280;64359;51.366;-0.222;2023-06-22T02:14:11;101557.42;;;24.58;52.06
75745;BME280;64359;51.366;-0.222;2023-06-22T02:15:16;101554.90;;;24.58;52.12
75745;BME280;64359;51.366;-0.222;2023-06-22T02:16:21;101553.61;;;24.58;52.16
75745;BME280;64359;51.366;-0.222;2023-06-22T02:17:26;101555.48;;;24.57;52.27
75745;BME280;64359;51.366;-0.222;2023-06-22T02:18:31;101552.55;;;24.58;52.21
75745;BME280;64359;51.366;-0.222;2023-06-22T02:19:37;101550.84;;;24.57;52.10
75745;BME280;64359;51.366;-0.222;2023-06-22T02:20:42;101548.45;;;24.57;52.18
75745;BME280;64359;51.366;-0.222;2023-06-22T02:21:46;101547.39;;;24.57;52.22
75745;BME280;64359;51.366;-0.222;2023-06-22T02:22:50;101546.68;;;24.56;52.05
75745;BME280;64359;51.366;-0.222;2023-06-22T02:23:55;101545.25;;;24.56;52.07
75745;BME280;64359;51.366;-0.222;2023-06-22T02:24:59;101543.99;;;24.56;52.20
75745;BME280;64359;51.366;-0.222;2023-06-22T02:26:04;101551.83;;;24.56;52.12
75745;BME280;64359;51.366;-0.222;2023-06-22T02:27:09;101545.34;;;24.56;52.08
75745;BME280;64359;51.366;-0.222;2023-06-22T02:28:14;101546.38;;;24.55;52.18
75745;BME280;64359;51.366;-0.222;2023-06-22T02:29:18;101546.50;;;24.55;52.15
75745;BME280;64359;51.366;-0.222;2023-06-22T02:30:22;101547.80;;;24.55;52.13
75745;BME280;64359;51.366;-0.222;2023-06-22T02:31:26;101546.21;;;24.55;52.12
75745;BME280;64359;51.366;-0.222;2023-06-22T02:32:33;101550.19;;;24.55;52.09
75745;BME280;64359;51.366;-0.222;2023-06-22T02:33:38;101549.39;;;24.54;52.13
75745;BME280;64359;51.366;-0.222;2023-06-22T02:34:42;101550.80;;;24.54;52.09
75745;BME280;64359;51.366;-0.222;2023-06-22T02:35:50;101554.15;;;24.54;51.97
75745;BME280;64359;51.366;-0.222;2023-06-22T02:36:54;101553.48;;;24.53;52.04
75745;BME280;64359;51.366;-0.222;2023-06-22T02:37:59;101550.01;;;24.53;52.22
75745;BME280;64359;51.366;-0.222;2023-06-22T02:39:03;101551.17;;;24.53;52.12
75745;BME280;64359;51.366;-0.222;2023-06-22T02:40:10;101551.34;;;24.53;51.99
75745;BME280;64359;51.366;-0.222;2023-06-22T02:41:14;101549.88;;;24.53;52.16
75745;BME280;64359;51.366;-0.222;2023-06-22T02:42:21;101550.13;;;24.52;52.01
75745;BME280;64359;51.366;-0.222;2023-06-22T02:43:26;101553.05;;;24.52;52.01
75745;BME280;64359;51.366;-0.222;2023-06-22T02:44:30;101554.77;;;24.52;51.98
75745;BME280;64359;51.366;-0.222;2023-06-22T02:45:34;101556.44;;;24.51;51.98
75745;BME280;64359;51.366;-0.222;2023-06-22T02:46:39;101557.57;;;24.51;51.92
75745;BME280;64359;51.366;-0.222;2023-06-22T02:47:43;101555.23;;;24.51;52.04
75745;BME280;64359;51.366;-0.222;2023-06-22T02:48:48;101554.72;;;24.50;52.05
75745;BME280;64359;51.366;-0.222;2023-06-22T02:49:52;101558.57;;;24.50;52.00
75745;BME280;64359;51.366;-0.222;2023-06-22T02:50:56;101562.21;;;24.50;52.09
75745;BME280;64359;51.366;-0.222;2023-06-22T02:52:01;101563.85;;;24.50;52.06
75745;BME280;64359;51.366;-0.222;2023-06-22T02:53:05;101565.18;;;24.49;51.95
75745;BME280;64359;51.366;-0.222;2023-06-22T02:54:09;101566.83;;;24.49;52.03
75745;BME280;64359;51.366;-0.222;2023-06-22T02:55:14;101568.07;;;24.48;52.01
75745;BME280;64359;51.366;-0.222;2023-06-22T02:56:18;101566.02;;;24.48;51.95
75745;BME280;64359;51.366;-0.222;2023-06-22T02:57:26;101567.14;;;24.48;52.04
75745;BME280;64359;51.366;-0.222;2023-06-22T02:58:30;101566.35;;;24.44;52.18
75745;BME280;64359;51.366;-0.222;2023-06-22T02:59:36;101569.48;;;24.44;52.01
75745;BME280;64359;51.366;-0.222;2023-06-22T03:00:43;101568.02;;;24.43;52.10
75745;BME280;64359;51.366;-0.222;2023-06-22T03:01:48;101575.73;;;24.43;52.14
75745;BME280;64359;51.366;-0.222;2023-06-22T03:02:53;101575.23;;;24.43;52.11
75745;BME280;64359;51.366;-0.222;2023-06-22T03:03:57;101578.86;;;24.43;52.15
75745;BME280;64359;51.366;-0.222;2023-06-22T03:05:01;101575.84;;;24.42;52.17
75745;BME280;64359;51.366;-0.222;2023-06-22T03:06:07;101575.09;;;24.43;52.12
75745;BME280;64359;51.366;-0.222;2023-06-22T03:07:17;101573.88;;;24.43;52.17
75745;BME280;64359;51.366;-0.222;2023-06-22T03:08:21;101571.05;;;24.42;52.17
75745;BME280;64359;51.366;-0.222;2023-06-22T03:09:26;101567.41;;;24.42;52.12
75745;BME280;64359;51.366;-0.222;2023-06-22T03:10:31;101559.99;;;24.41;52.19
75745;BME280;64359;51.366;-0.222;2023-06-22T03:11:35;101560.79;;;24.41;52.16
75745;BME280;64359;51.366;-0.222;2023-06-22T03:12:40;101561.49;;;24.41;52.14
75745;BME280;64359;51.366;-0.222;2023-06-22T03:13:45;101558.58;;;24.41;52.15
75745;BME280;64359;51.366;-0.222;2023-06-22T03:14:49;101559.23;;;24.40;52.16
75745;BME280;64359;51.366;-0.222;2023-06-22T03:15:54;101561.37;;;24.41;52.22
75745;BME280;64359;51.366;-0.222;2023-06-22T03:16:59;101556.80;;;24.41;52.19
75745;BME280;64359;51.366;-0.222;2023-06-22T03:18:09;101558.82;;;24.41;52.23
75745;BME280;64359;51.366;-0.222;2023-06-22T03:19:15;101553.73;;;24.39;52.30
75745;BME280;64359;51.366;-0.222;2023-06-22T03:20:19;101552.77;;;24.40;52.24
75745;BME280;64359;51.366;-0.222;2023-06-22T03:21:26;101552.27;;;24.40;52.19
75745;BME280;64359;51.366;-0.222;2023-06-22T03:22:31;101552.14;;;24.39;52.16
75745;BME280;64359;51.366;-0.222;2023-06-22T03:23:35;101555.04;;;24.39;52.18
75745;BME280;64359;51.366;-0.222;2023-06-22T03:24:40;101554.31;;;24.39;52.19
75745;BME280;64359;51.366;-0.222;2023-06-22T03:25:44;101551.67;;;24.39;52.27
75745;BME280;64359;51.366;-0.222;2023-06-22T03:26:49;101551.09;;;24.39;52.05
75745;BME280;64359;51.366;-0.222;2023-06-22T03:27:54;101549.48;;;24.39;52.22
75745;BME280;64359;51.366;-0.222;2023-06-22T03:28:58;101545.42;;;24.38;52.16
75745;BME280;64359;51.366;-0.222;2023-06-22T03:30:03;101545.72;;;24.38;52.13
75745;BME280;64359;51.366;-0.222;2023-06-22T03:31:07;101544.88;;;24.38;52.14
75745;BME280;64359;51.366;-0.222;2023-06-22T03:32:12;101545.05;;;24.38;52.28
75745;BME280;64359;51.366;-0.222;2023-06-22T03:33:16;101539.84;;;24.37;52.33
75745;BME280;64359;51.366;-0.222;2023-06-22T03:34:20;101538.06;;;24.37;52.31
75745;BME280;64359;51.366;-0.222;2023-06-22T03:35:25;101536.64;;;24.37;52.09
75745;BME280;64359;51.366;-0.222;2023-06-22T03:36:29;101533.71;;;24.37;52.15
75745;BME280;64359;51.366;-0.222;2023-06-22T03:37:33;101531.94;;;24.37;52.29
75745;BME280;64359;51.366;-0.222;2023-06-22T03:38:38;101531.98;;;24.36;52.23
75745;BME280;64359;51.366;-0.222;2023-06-22T03:39:42;101530.20;;;24.36;52.31
75745;BME280;64359;51.366;-0.222;2023-06-22T03:40:47;101529.11;;;24.36;52.31
75745;BME280;64359;51.366;-0.222;2023-06-22T03:41:51;101526.44;;;24.36;52.17
75745;BME280;64359;51.366;-0.222;2023-06-22T03:42:56;101526.30;;;24.35;52.28
75745;BME280;64359;51.366;-0.222;2023-06-22T03:44:00;101523.77;;;24.35;52.12
75745;BME280;64359;51.366;-0.222;2023-06-22T03:45:06;101522.19;;;24.35;52.25
75745;BME280;64359;51.366;-0.222;2023-06-22T03:46:10;101521.10;;;24.34;52.29
75745;BME280;64359;51.366;-0.222;2023-06-22T03:47:14;101520.77;;;24.35;52.26
75745;BME280;64359;51.366;-0.222;2023-06-22T03:48:19;101518.08;;;24.34;52.27
75745;BME280;64359;51.366;-0.222;2023-06-22T03:49:23;101516.48;;;24.34;52.20
75745;BME280;64359;51.366;-0.222;2023-06-22T03:50:28;101513.97;;;24.34;52.15
75745;BME280;64359;51.366;-0.222;2023-06-22T03:51:34;101510.95;;;24.33;52.25
75745;BME280;64359;51.366;-0.222;2023-06-22T03:52:38;101512.07;;;24.33;52.20
75745;BME280;64359;51.366;-0.222;2023-06-22T03:53:43;101514.46;;;24.33;52.36
75745;BME280;64359;51.366;-0.222;2023-06-22T03:54:47;101511.23;;;24.32;52.21
75745;BME280;64359;51.366;-0.222;2023-06-22T03:55:52;101512.77;;;24.32;52.30
75745;BME280;64359;51.366;-0.222;2023-06-22T03:56:57;101515.24;;;24.32;52.25
75745;BME280;64359;51.366;-0.222;2023-06-22T03:58:02;101516.08;;;24.31;52.30
75745;BME280;64359;51.366;-0.222;2023-06-22T03:59:08;101517.17;;;24.31;52.19
75745;BME280;64359;51.366;-0.222;2023-06-22T04:00:14;101518.27;;;24.31;52.22
75745;BME280;64359;51.366;-0.222;2023-06-22T04:01:20;101515.50;;;24.29;52.17
75745;BME280;64359;51.366;-0.222;2023-06-22T04:02:24;101519.34;;;24.27;52.24
75745;BME280;64359;51.366;-0.222;2023-06-22T04:03:28;101527.50;;;24.30;52.15
75745;BME280;64359;51.366;-0.222;2023-06-22T04:04:33;101528.72;;;24.30;52.22
75745;BME280;64359;51.366;-0.222;2023-06-22T04:05:39;101528.13;;;24.29;52.19
75745;BME280;64359;51.366;-0.222;2023-06-22T04:06:43;101527.96;;;24.29;52.26
75745;BME280;64359;51.366;-0.222;2023-06-22T04:07:48;101534.29;;;24.30;52.31
75745;BME280;64359;51.366;-0.222;2023-06-22T04:08:52;101533.83;;;24.29;52.18
75745;BME280;64359;51.366;-0.222;2023-06-22T04:09:56;101537.53;;;24.28;52.18
75745;BME280;64359;51.366;-0.222;2023-06-22T04:11:01;101540.94;;;24.29;52.27
75745;BME280;64359;51.366;-0.222;2023-06-22T04:12:06;101544.77;;;24.28;52.24
75745;BME280;64359;51.366;-0.222;2023-06-22T04:13:11;101544.27;;;24.28;52.16
75745;BME280;64359;51.366;-0.222;2023-06-22T04:14:15;101544.13;;;24.28;52.30
75745;BME280;64359;51.366;-0.222;2023-06-22T04:15:19;101538.19;;;24.24;52.15
75745;BME280;64359;51.366;-0.222;2023-06-22T04:16:24;101542.29;;;24.28;52.35
75745;BME280;64359;51.366;-0.222;2023-06-22T04:17:28;101543.45;;;24.27;52.23
75745;BME280;64359;51.366;-0.222;2023-06-22T04:18:32;101536.95;;;24.27;52.36
75745;BME280;64359;51.366;-0.222;2023-06-22T04:19:37;101540.59;;;24.27;52.21
75745;BME280;64359;51.366;-0.222;2023-06-22T04:20:41;101537.33;;;24.27;52.29
75745;BME280;64359;51.366;-0.222;2023-06-22T04:21:45;101539.04;;;24.26;52.11
75745;BME280;64359;51.366;-0.222;2023-06-22T04:22:51;101537.45;;;24.26;52.18
75745;BME280;64359;51.366;-0.222;2023-06-22T04:23:55;101535.21;;;24.25;52.20
75745;BME280;64359;51.366;-0.222;2023-06-22T04:25:00;101540.76;;;24.25;52.27
75745;BME280;64359;51.366;-0.222;2023-06-22T04:26:04;101538.36;;;24.26;52.32
75745;BME280;64359;51.366;-0.222;2023-06-22T04:27:08;101536.05;;;24.25;52.22
75745;BME280;64359;51.366;-0.222;2023-06-22T04:28:13;101535.59;;;24.25;52.29
75745;BME280;64359;51.366;-0.222;2023-06-22T04:29:17;101534.09;;;24.25;52.39
75745;BME280;64359;51.366;-0.222;2023-06-22T04:30:21;101532.73;;;24.24;52.37
75745;BME280;64359;51.366;-0.222;2023-06-22T04:31:26;101534.91;;;24.24;52.28
75745;BME280;64359;51.366;-0.222;2023-06-22T04:32:35;101536.17;;;24.24;52.27
75745;BME280;64359;51.366;-0.222;2023-06-22T04:33:40;101532.83;;;24.21;52.32
75745;BME280;64359;51.366;-0.222;2023-06-22T04:34:44;101535.88;;;24.24;52.33
75745;BME280;64359;51.366;-0.222;2023-06-22T04:35:49;101537.21;;;24.24;52.37
75745;BME280;64359;51.366;-0.222;2023-06-22T04:36:53;101541.19;;;24.24;52.37
75745;BME280;64359;51.366;-0.222;2023-06-22T04:37:59;101537.55;;;24.24;52.46
75745;BME280;64359;51.366;-0.222;2023-06-22T04:39:04;101541.43;;;24.23;52.46
75745;BME280;64359;51.366;-0.222;2023-06-22T04:40:09;101540.73;;;24.23;52.55
75745;BME280;64359;51.366;-0.222;2023-06-22T04:41:17;101538.21;;;24.23;52.28
75745;BME280;64359;51.366;-0.222;2023-06-22T04:42:27;101538.38;;;24.23;52.55
75745;BME280;64359;51.366;-0.222;2023-06-22T04:43:33;101538.75;;;24.23;52.39
75745;BME280;64359;51.366;-0.222;2023-06-22T04:44:37;101535.27;;;24.22;52.37
75745;BME280;64359;51.366;-0.222;2023-06-22T04:45:43;101538.83;;;24.22;52.41
75745;BME280;64359;51.366;-0.222;2023-06-22T04:46:47;101539.05;;;24.22;52.32
75745;BME280;64359;51.366;-0.222;2023-06-22T04:47:56;101537.06;;;24.22;52.42
75745;BME280;64359;51.366;-0.222;2023-06-22T04:49:01;101538.23;;;24.21;52.50
75745;BME280;64359;51.366;-0.222;2023-06-22T04:50:06;101538.37;;;24.22;52.49
75745;BME280;64359;51.366;-0.222;2023-06-22T04:51:11;101540.08;;;24.21;52.48
75745;BME280;64359;51.366;-0.222;2023-06-22T04:52:15;101540.41;;;24.21;52.43
75745;BME280;64359;51.366;-0.222;2023-06-22T04:53:20;101536.72;;;24.20;52.51
75745;BME280;64359;51.366;-0.222;2023-06-22T04:54:25;101535.08;;;24.20;52.55
75745;BME280;64359;51.366;-0.222;2023-06-22T04:55:29;101537.39;;;24.21;52.61
75745;BME280;64359;51.366;-0.222;2023-06-22T04:56:34;101533.06;;;24.19;52.47
75745;BME280;64359;51.366;-0.222;2023-06-22T04:57:38;101531.73;;;24.19;52.60
75745;BME280;64359;51.366;-0.222;2023-06-22T04:58:42;101530.67;;;24.19;52.57
75745;BME280;64359;51.366;-0.222;2023-06-22T04:59:47;101533.57;;;24.19;52.50
75745;BME280;64359;51.366;-0.222;2023-06-22T05:00:51;101525.21;;;24.18;52.50
75745;BME280;64359;51.366;-0.222;2023-06-22T05:01:55;101531.51;;;24.18;52.62
75745;BME280;64359;51.366;-0.222;2023-06-22T05:03:00;101529.70;;;24.18;52.55
75745;BME280;64359;51.366;-0.222;2023-06-22T05:04:06;101531.11;;;24.17;52.59
75745;BME280;64359;51.366;-0.222;2023-06-22T05:05:11;101536.14;;;24.17;52.80
75745;BME280;64359;51.366;-0.222;2023-06-22T05:06:16;101538.11;;;24.17;52.79
75745;BME280;64359;51.366;-0.222;2023-06-22T05:07:21;101542.34;;;24.17;52.89
75745;BME280;64359;51.366;-0.222;2023-06-22T05:08:28;101549.59;;;24.17;52.86
75745;BME280;64359;51.366;-0.222;2023-06-22T05:09:33;101551.09;;;24.17;52.82
75745;BME280;64359;51.366;-0.222;2023-06-22T05:10:37;101553.48;;;24.17;52.92
75745;BME280;64359;51.366;-0.222;2023-06-22T05:11:42;101556.16;;;24.17;52.97
75745;BME280;64359;51.366;-0.222;2023-06-22T05:12:47;101555.45;;;24.17;52.88
75745;BME280;64359;51.366;-0.222;2023-06-22T05:13:52;101554.66;;;24.17;53.11
75745;BME280;64359;51.366;-0.222;2023-06-22T05:14:57;101558.94;;;24.18;53.32
75745;BME280;64359;51.366;-0.222;2023-06-22T05:16:02;101555.25;;;24.18;53.34
75745;BME280;64359;51.366;-0.222;2023-06-22T05:17:06;101554.69;;;24.20;53.54
75745;BME280;64359;51.366;-0.222;2023-06-22T05:18:17;101552.73;;;24.22;53.59
75745;BME280;64359;51.366;-0.222;2023-06-22T05:19:27;101551.31;;;24.22;53.68
75745;BME280;64359;51.366;-0.222;2023-06-22T05:20:36;101556.70;;;24.24;53.84
75745;BME280;64359;51.366;-0.222;2023-06-22T05:21:41;101556.52;;;24.26;53.78
75745;BME280;64359;51.366;-0.222;2023-06-22T05:22:45;101553.42;;;24.27;53.72
75745;BME280;64359;51.366;-0.222;2023-06-22T05:23:49;101559.15;;;24.28;53.87
75745;BME280;64359;51.366;-0.222;2023-06-22T05:24:54;101555.91;;;24.29;53.96
75745;BME280;64359;51.366;-0.222;2023-06-22T05:25:59;101557.22;;;24.31;53.84
75745;BME280;64359;51.366;-0.222;2023-06-22T05:27:04;101555.34;;;24.31;53.92
75745;BME280;64359;51.366;-0.222;2023-06-22T05:28:08;101552.41;;;24.32;53.81
75745;BME280;64359;51.366;-0.222;2023-06-22T05:29:14;101549.00;;;24.34;53.99
75745;BME280;64359;51.366;-0.222;2023-06-22T05:30:18;101548.88;;;24.35;53.79
75745;BME280;64359;51.366;-0.222;2023-06-22T05:31:23;101548.84;;;24.35;53.98
75745;BME280;64359;51.366;-0.222;2023-06-22T05:32:27;101544.91;;;24.36;54.11
75745;BME280;64359;51.366;-0.222;2023-06-22T05:33:32;101550.23;;;24.37;54.17
75745;BME280;64359;51.366;-0.222;2023-06-22T05:34:37;101548.14;;;24.38;54.13
75745;BME280;64359;51.366;-0.222;2023-06-22T05:35:41;101549.28;;;24.39;54.21
75745;BME280;64359;51.366;-0.222;2023-06-22T05:36:45;101552.31;;;24.39;54.03
75745;BME280;64359;51.366;-0.222;2023-06-22T05:37:50;101550.39;;;24.40;54.20
75745;BME280;64359;51.366;-0.222;2023-06-22T05:38:55;101547.45;;;24.37;54.26